Date,TemperatureHighF,TemperatureAvgF,TemperatureLowF,DewpointHighF,DewpointAvgF,DewpointLowF,HumidityHigh,HumidityAvg,HumidityLow,PressureMaxIn,PressureMinIn,WindSpeedMaxMPH,WindSpeedAvgMPH,GustSpeedMaxMPH,PrecipitationSumIn
2013-3-1,48,40,32,30,27,25,79,60,43,29.81,29.74,7,-776,11,0.00
2013-3-2,48,40,31,27,24,18,70,54,39,29.82,29.70,6,-711,9,0.00
2013-3-3,46,36,29,21,18,16,63,50,35,29.88,29.75,8,-630,9,0.00
2013-3-4,51,40,26,18,14,-100,66,37,22,30.01,29.88,6,-511,9,0.00
2013-3-5,48,44,41,44,31,18,100,66,37,29.96,29.54,0,-926,0,0.07
2013-3-6,46,42,36,34,28,25,90,60,48,29.93,29.51,11,-602,16,0.00
2013-3-7,52,42,34,31,28,25,76,60,42,30.13,29.93,8,-624,13,0.00
2013-3-8,55,47,34,26,24,19,67,42,27,30.17,30.04,9,-701,13,0.00
2013-3-9,63,48,33,29,26,24,72,45,25,30.23,30.12,4,-602,9,0.00
2013-3-10,67,54,42,33,28,22,63,38,20,30.20,30.09,2,-594,8,0.00
2013-3-11,69,55,42,52,42,23,83,63,39,30.12,29.81,1,-744,4,0.00
2013-3-12,58,58,57,54,53,52,91,84,80,29.82,29.76,0,-999,0,0.00
2013-3-13,57,48,37,32,24,19,75,40,25,30.02,29.84,9,-423,13,0.00
2013-3-14,54,40,28,20,18,15,65,42,24,30.14,30.01,6,-608,10,0.00
2013-3-15,62,46,34,35,26,16,58,45,30,30.07,29.78,4,-914,7,0.00
2013-3-16,80,62,48,50,43,35,69,52,31,29.78,29.54,5,-716,10,0.00
2013-3-17,65,52,41,51,42,37,91,71,59,30.05,29.71,6,-813,7,0.00
2013-3-18,42,39,37,42,39,37,100,99,91,30.09,29.73,0,-999,0,0.43
2013-3-19,66,51,40,43,33,13,100,62,19,29.90,29.71,7,-780,8,0.00
2013-3-20,57,47,40,22,14,8,49,27,19,30.00,29.68,3,-669,6,0.00
2013-3-21,45,41,38,31,28,22,72,59,48,29.69,29.62,0,-999,0,0.00
2013-3-23,55,48,41,30,24,18,61,41,31,29.94,29.80,0,-604,0,0.00
2013-3-24,43,40,38,37,33,-100,96,79,55,29.83,29.47,0,-999,0,0.59
2013-3-25,49,43,37,34,26,22,60,50,41,29.71,29.48,7,-626,9,0.00
2013-3-26,48,40,32,29,26,23,75,57,43,30.01,29.71,5,-695,8,0.00
2013-3-27,52,43,32,27,23,18,77,47,28,30.12,30.01,8,-547,16,0.00
2013-3-28,56,44,31,27,23,20,71,45,27,30.18,30.04,7,-583,11,0.00
2013-3-29,60,50,36,29,24,21,62,39,23,30.23,30.07,5,-583,9,0.00
2013-3-30,65,55,45,43,35,24,74,48,26,30.13,29.96,4,-646,6,0.00
2013-3-31,68,56,48,59,50,-100,100,84,63,29.98,29.69,8,-706,8,0.66